ADDS TAF Board (Experimental) INFO Settings
IDs: Format: Expanded Condensed

KIAD - Washington/Dulles In, VA, US

Issued at 1737 UTC 28 Jul 2015
Updated at: 1739 UTC 28 Jul 2015
Time1652Z 28/18Z 28/19Z 28/20Z 28/21Z 28/22Z 28/23Z 29/00Z 29/01Z 29/02Z 29/03Z 29/04Z 29/05Z 29/06Z
Type OBS PRVL PRVL PRVL PRVL PRVL PRVL PRVL PRVL PRVL PRVL PRVL PRVL PRVL
VIS 10 >6 >6 >6 >6 >6 >6 >6 >6 >6 >6 >6 >6 >6
CIG 65 -- -- -- -- -- -- -- -- -- -- -- -- --
Cover BKN SCT SCT SCT SCT SCT SCT SKC SKC SKC SKC SKC SKC SKC
FltCat VFR VFR VFR VFR VFR VFR VFR VFR VFR VFR VFR VFR VFR VFR
WX -- -- -- -- -- -- -- -- -- -- -- -- -- --
WDir VRB VRB VRB VRB VRB VRB VRB VRB VRB VRB VRB VRB VRB VRB
WSpd 0 3 3 3 3 3 3 3 3 3 3 3 3 3
WGst -- -- -- -- -- -- -- -- -- -- -- -- -- --
R01/19
XWnd VRB VRB VRB VRB VRB VRB VRB VRB VRB VRB VRB VRB VRB VRB
HWnd VRB VRB VRB VRB VRB VRB VRB VRB VRB VRB VRB VRB VRB VRB
R12/30
XWnd VRB VRB VRB VRB VRB VRB VRB VRB VRB VRB VRB VRB VRB VRB
HWnd VRB VRB VRB VRB VRB VRB VRB VRB VRB VRB VRB VRB VRB VRB

NOTE: TEMPO conditions in [brackets]. Keep in mind TEMPO conditions might be better (lower impact) than prevailing conditions.

Raw TAF
KIAD 281737Z 2818/2924 VRB03KT P6SM SCT040
  FM290000 VRB03KT P6SM SKC
  FM290900 VRB03KT 3SM BR SKC
  FM291200 14005KT P6SM FEW250
  FM291700 17009KT P6SM SCT050


Raw METAR
KIAD 281652Z 00000KT 10SM SCT035 BKN065 29/22 A3001 RMK AO2 SLP157 T02940217
KIAD 281552Z 05005KT 10SM SCT024 29/23 A3002 RMK AO2 SLP161 T02940228
KIAD 281452Z 03005KT 10SM SCT019 29/22 A3002 RMK AO2 SLP163 T02890222 50002

METAR Board
Radar Display
Forecast Discussion

TAF Board Legend

Potential Impact
Threat None Slight Moderate High
Visibility (sm) ≥5.1 5.1>X≥3 3>X≥1 <1
Ceiling (100 ft) ≥30.1 30.1>X≥10 10>X≥5 <5
Wind Speed (kt) <10 10≤X<20 20≤X<30 ≥30
Wind Gust (kt) <15 15≤X<25 25≤X<35 ≥35
Weather No Wx Reported VCTS,-TS,-FZRA,SN TS,FZRA +TS,+FZRA,+SN